createdAt,value
2019-03-18T00:01:55.684Z,7.90
2019-03-18T00:04:25.384Z,7.80
2019-03-18T00:07:21.685Z,7.80
2019-03-18T00:10:38.658Z,7.80
2019-03-18T00:13:07.824Z,7.80
2019-03-18T00:16:33.002Z,7.80
2019-03-18T00:19:02.211Z,7.80
2019-03-18T00:21:31.445Z,7.80
2019-03-18T00:24:00.703Z,7.80
2019-03-18T00:26:29.908Z,7.90
2019-03-18T00:29:00.583Z,7.90
2019-03-18T00:31:29.835Z,7.90
2019-03-18T00:33:59.011Z,7.80
2019-03-18T00:48:00.049Z,7.70
2019-03-18T00:50:29.356Z,7.70
2019-03-18T00:52:58.644Z,7.70
2019-03-18T00:55:27.877Z,7.70
2019-03-18T00:57:57.056Z,7.60
2019-03-18T01:00:29.700Z,7.60
2019-03-18T01:02:58.924Z,7.70
2019-03-18T01:05:28.162Z,7.70
2019-03-18T01:07:57.598Z,7.70
2019-03-18T01:10:26.842Z,7.60
2019-03-18T01:12:56.214Z,7.80
2019-03-18T01:15:28.400Z,7.60
2019-03-18T01:17:56.447Z,7.50
2019-03-18T01:20:25.639Z,7.50
2019-03-18T01:22:55.955Z,7.40
2019-03-18T01:25:25.976Z,7.40
2019-03-18T01:27:55.253Z,7.60
2019-03-18T01:30:24.475Z,7.60
2019-03-18T01:32:53.611Z,7.40
2019-03-18T01:35:22.855Z,7.50
2019-03-18T01:37:52.088Z,7.40
2019-03-18T01:40:21.372Z,7.40
2019-03-18T01:42:50.537Z,7.40
2019-03-18T01:45:39.729Z,7.40
2019-03-18T01:48:53.881Z,7.30
2019-03-18T01:51:20.732Z,7.20
2019-03-18T01:54:40.601Z,7.20
2019-03-18T01:57:13.736Z,7.30
2019-03-18T01:59:42.965Z,7.20
2019-03-18T02:02:12.260Z,7.20
2019-03-18T02:04:42.894Z,7.30
2019-03-18T02:07:15.465Z,7.20
2019-03-18T02:09:48.022Z,7.20
2019-03-18T02:12:20.633Z,7.30
2019-03-18T02:14:49.974Z,7.30
2019-03-18T02:17:43.303Z,7.20
2019-03-18T02:20:12.625Z,7.20
2019-03-18T02:22:41.741Z,7.20
2019-03-18T02:25:13.258Z,7.10
2019-03-18T02:27:45.679Z,7.40
2019-03-18T02:30:15.455Z,7.20
2019-03-18T02:32:45.832Z,7.10
2019-03-18T02:35:27.792Z,7.10
2019-03-18T02:38:04.970Z,7.30
2019-03-18T02:40:53.816Z,7.20
2019-03-18T02:43:36.537Z,7.30
2019-03-18T02:46:34.874Z,7.20
2019-03-18T02:52:52.000Z,7.20
2019-03-18T02:55:24.833Z,7.10
2019-03-18T02:58:29.309Z,6.90
2019-03-18T03:00:59.175Z,6.90
2019-03-18T03:03:28.330Z,6.90
2019-03-18T03:05:57.535Z,7.00
2019-03-18T03:08:26.727Z,7.10
2019-03-18T03:10:55.927Z,7.00
2019-03-18T03:13:25.126Z,6.90
2019-03-18T03:15:54.374Z,6.90
2019-03-18T03:18:31.994Z,6.90
2019-03-18T03:21:01.222Z,6.90
2019-03-18T03:23:30.486Z,6.90
2019-03-18T03:25:59.686Z,6.70
2019-03-18T03:28:28.913Z,6.80
2019-03-18T03:30:58.125Z,6.70
2019-03-18T03:33:27.337Z,6.70
2019-03-18T03:35:58.981Z,6.70
2019-03-18T03:38:28.204Z,6.60
2019-03-18T03:40:57.508Z,6.80
2019-03-18T03:43:26.806Z,6.80
2019-03-18T03:45:56.029Z,6.90
2019-03-18T03:48:25.397Z,6.70
2019-03-18T03:50:54.627Z,6.60
2019-03-18T03:53:23.851Z,6.50
2019-03-18T03:55:53.375Z,6.50
2019-03-18T03:58:22.768Z,6.60
2019-03-18T04:00:52.140Z,6.60
2019-03-18T04:03:37.207Z,6.60
2019-03-18T04:05:52.552Z,6.40
2019-03-18T04:08:21.845Z,6.50
2019-03-18T04:10:51.124Z,6.50
2019-03-18T04:13:20.294Z,6.60
2019-03-18T04:15:49.682Z,6.70
2019-03-18T04:18:18.857Z,6.50
2019-03-18T04:20:48.157Z,6.30
2019-03-18T04:23:17.434Z,6.40
2019-03-18T04:25:46.700Z,6.20
2019-03-18T04:28:15.925Z,6.10
2019-03-18T04:30:45.181Z,6.10
2019-03-18T04:33:14.304Z,6.30
2019-03-18T04:35:43.534Z,6.30
2019-03-18T04:38:12.822Z,6.20
2019-03-18T04:40:42.007Z,6.20
2019-03-18T04:43:11.221Z,6.10
2019-03-18T04:45:42.077Z,6.00
2019-03-18T04:48:11.512Z,6.30
2019-03-18T04:50:42.336Z,6.20
2019-03-18T04:53:11.885Z,6.10
2019-03-18T04:55:41.276Z,5.90
2019-03-18T04:58:10.479Z,5.80
2019-03-18T05:00:39.776Z,5.80
2019-03-18T05:03:08.988Z,5.90
2019-03-18T05:05:38.228Z,5.70
2019-03-18T05:08:07.542Z,5.70
2019-03-18T05:10:36.796Z,5.80
2019-03-18T05:13:05.921Z,5.70
2019-03-18T05:15:35.119Z,5.70
2019-03-18T05:18:04.329Z,5.60
2019-03-18T05:20:33.604Z,5.60
2019-03-18T05:23:02.848Z,5.60
2019-03-18T05:25:34.227Z,5.80
2019-03-18T05:28:05.198Z,5.70
2019-03-18T05:30:37.516Z,5.60
2019-03-18T05:39:54.050Z,5.50
2019-03-18T06:02:36.548Z,5.60
2019-03-18T06:33:01.663Z,5.80
2019-03-18T06:36:37.777Z,5.70
2019-03-18T06:38:46.488Z,5.70
2019-03-18T06:42:12.778Z,5.90
2019-03-18T06:45:34.336Z,6.00
2019-03-18T06:48:55.624Z,6.10
2019-03-18T06:52:41.222Z,6.00
2019-03-18T07:06:50.579Z,6.20
2019-03-18T07:19:04.077Z,6.50
2019-03-18T07:29:43.235Z,6.70
2019-03-18T07:32:15.258Z,6.70
2019-03-18T07:34:44.486Z,6.80
2019-03-18T07:37:13.791Z,6.70
2019-03-18T07:39:43.101Z,6.80
2019-03-18T07:42:12.313Z,7.10
2019-03-18T07:44:41.471Z,7.00
2019-03-18T07:47:10.740Z,7.10
2019-03-18T07:49:39.954Z,7.00
2019-03-18T07:52:09.194Z,7.00
2019-03-18T07:54:38.490Z,7.30
2019-03-18T07:57:07.720Z,7.50
2019-03-18T07:59:36.925Z,7.60
2019-03-18T08:02:08.601Z,7.70
2019-03-18T08:04:38.250Z,7.90
2019-03-18T08:07:07.534Z,8.10
2019-03-18T08:09:36.697Z,8.30
2019-03-18T08:12:06.207Z,8.50
2019-03-18T08:14:35.382Z,8.70
2019-03-18T08:17:06.727Z,8.80
2019-03-18T08:19:50.006Z,9.00
2019-03-18T08:22:19.199Z,9.10
2019-03-18T08:24:55.654Z,9.40
2019-03-18T08:27:24.576Z,9.30
2019-03-18T08:29:53.799Z,9.40
2019-03-18T08:32:23.010Z,9.50
2019-03-18T08:34:52.265Z,9.60
2019-03-18T08:37:21.446Z,9.80
2019-03-18T08:39:50.656Z,10.00
2019-03-18T08:42:19.866Z,10.00
2019-03-18T08:44:49.060Z,10.30
2019-03-18T08:47:18.293Z,10.30
2019-03-18T08:49:47.525Z,10.20
2019-03-18T08:52:16.734Z,10.30
2019-03-18T08:54:46.025Z,10.40
2019-03-18T08:57:15.258Z,10.60
2019-03-18T08:59:44.484Z,10.60
2019-03-18T09:02:13.700Z,10.70
2019-03-18T09:04:42.827Z,10.70
2019-03-18T09:07:12.201Z,10.70
2019-03-18T09:09:41.380Z,10.80
2019-03-18T09:12:10.653Z,11.00
2019-03-18T09:14:39.895Z,11.20
2019-03-18T09:17:09.162Z,11.10
2019-03-18T09:19:38.904Z,11.10
2019-03-18T09:22:08.144Z,11.10
2019-03-18T09:24:37.754Z,11.30
2019-03-18T09:27:06.972Z,11.20
2019-03-18T09:29:36.117Z,11.40
2019-03-18T09:32:05.392Z,11.50
2019-03-18T09:34:34.646Z,11.50
2019-03-18T09:37:03.867Z,11.30
2019-03-18T09:39:33.076Z,10.90
2019-03-18T09:42:02.527Z,10.70
2019-03-18T09:44:31.743Z,10.60
2019-03-18T09:47:00.918Z,10.30
2019-03-18T09:49:30.145Z,10.10
2019-03-18T09:51:59.328Z,9.80
2019-03-18T09:54:29.001Z,9.50
2019-03-18T09:56:58.510Z,9.40
2019-03-18T09:59:27.718Z,9.40
2019-03-18T10:01:56.900Z,9.40
2019-03-18T10:04:26.139Z,9.40
2019-03-18T10:06:55.363Z,9.40
2019-03-18T10:09:24.483Z,9.30
2019-03-18T10:11:53.735Z,9.10
2019-03-18T10:14:23.109Z,9.00
2019-03-18T10:16:52.302Z,9.30
2019-03-18T10:19:32.778Z,9.20
2019-03-18T10:21:52.296Z,9.10
2019-03-18T10:24:21.504Z,9.10
2019-03-18T10:26:51.216Z,9.10
2019-03-18T10:29:22.479Z,9.00
2019-03-18T10:31:52.178Z,9.30
2019-03-18T10:34:21.676Z,9.00
2019-03-18T10:36:51.067Z,9.00
2019-03-18T10:39:20.284Z,8.90
2019-03-18T10:41:49.514Z,9.10
2019-03-18T10:44:18.729Z,8.90
2019-03-18T10:46:48.698Z,8.90
2019-03-18T10:49:17.877Z,9.20
2019-03-18T10:51:48.238Z,9.30
2019-03-18T10:54:29.995Z,9.30
2019-03-18T10:56:48.685Z,9.40
2019-03-18T10:59:20.170Z,9.30
2019-03-18T11:01:49.392Z,9.30
2019-03-18T11:04:18.599Z,9.30
2019-03-18T11:06:47.816Z,9.40
2019-03-18T11:09:16.960Z,9.40
2019-03-18T11:11:46.162Z,9.30
2019-03-18T11:14:15.384Z,9.40
2019-03-18T11:16:44.575Z,9.50
2019-03-18T11:19:13.867Z,9.30
2019-03-18T11:21:43.149Z,9.20
2019-03-18T11:24:12.349Z,9.30
2019-03-18T11:26:41.573Z,9.20
2019-03-18T11:29:10.737Z,9.20
2019-03-18T11:31:41.920Z,9.20
2019-03-18T11:34:11.142Z,9.30
2019-03-18T11:36:40.432Z,9.40
2019-03-18T11:39:09.696Z,9.30
2019-03-18T11:41:38.827Z,9.40
2019-03-18T11:44:08.005Z,9.50
2019-03-18T11:46:37.238Z,9.40
2019-03-18T11:49:08.076Z,9.40
2019-03-18T11:51:39.329Z,9.50
2019-03-18T11:54:08.591Z,9.40
2019-03-18T11:56:37.805Z,9.40
2019-03-18T11:59:07.077Z,9.40
2019-03-18T12:01:36.249Z,9.60
2019-03-18T12:04:05.553Z,9.70
2019-03-18T12:06:34.883Z,9.60
2019-03-18T12:09:05.935Z,9.70
2019-03-18T12:11:35.146Z,9.80
2019-03-18T12:14:04.496Z,9.60
2019-03-18T12:16:33.751Z,9.50
2019-03-18T12:19:03.021Z,9.60
2019-03-18T12:21:32.208Z,9.50
2019-03-18T12:24:01.453Z,9.40
2019-03-18T12:26:30.697Z,9.30
2019-03-18T12:28:59.941Z,9.40
2019-03-18T12:31:29.179Z,9.50
2019-03-18T12:33:58.443Z,9.40
2019-03-18T12:36:27.636Z,9.40
2019-03-18T12:38:56.937Z,9.40
2019-03-18T12:41:26.171Z,9.20
2019-03-18T12:43:56.333Z,9.10
2019-03-18T12:46:25.484Z,9.00
2019-03-18T12:48:54.711Z,9.40
2019-03-18T12:51:24.087Z,9.90
2019-03-18T12:53:53.237Z,10.40
2019-03-18T12:56:22.434Z,10.70
2019-03-18T12:58:53.195Z,11.00
2019-03-18T13:01:22.430Z,11.40
2019-03-18T13:03:51.666Z,11.80
2019-03-18T13:06:20.962Z,11.70
2019-03-18T13:08:50.209Z,11.80
2019-03-18T13:11:19.420Z,11.90
2019-03-18T13:13:48.688Z,11.80
2019-03-18T13:16:18.302Z,12.00
2019-03-18T13:18:47.636Z,12.30
2019-03-18T13:21:16.933Z,12.50
2019-03-18T13:23:46.184Z,12.20
2019-03-18T13:26:16.637Z,11.90
2019-03-18T13:28:48.200Z,11.70
2019-03-18T13:31:17.440Z,11.50
2019-03-18T13:33:46.678Z,11.10
2019-03-18T13:36:15.889Z,10.50
2019-03-18T13:38:45.236Z,9.80
2019-03-18T13:41:14.432Z,8.90
2019-03-18T13:43:43.718Z,8.50
2019-03-18T13:46:12.971Z,8.20
2019-03-18T13:48:42.078Z,7.80
2019-03-18T13:51:20.730Z,7.50
2019-03-18T13:53:45.563Z,7.50
2019-03-18T13:56:15.708Z,8.30
2019-03-18T13:58:44.966Z,8.70
2019-03-18T14:01:14.307Z,9.20
2019-03-18T14:03:43.633Z,9.70
2019-03-18T14:06:13.042Z,10.00
2019-03-18T14:08:44.484Z,10.10
2019-03-18T14:11:13.849Z,10.20
2019-03-18T14:13:43.000Z,10.10
2019-03-18T14:16:12.202Z,9.80
2019-03-18T14:18:41.760Z,9.90
2019-03-18T14:21:11.117Z,9.60
2019-03-18T14:23:40.363Z,9.50
2019-03-18T14:26:09.627Z,9.80
2019-03-18T14:28:38.948Z,10.00
2019-03-18T14:31:08.185Z,10.10
2019-03-18T14:33:38.658Z,10.00
2019-03-18T14:36:07.905Z,9.80
2019-03-18T14:38:38.368Z,9.80
2019-03-18T14:41:07.856Z,9.80
2019-03-18T14:43:37.141Z,10.00
2019-03-18T14:46:06.329Z,10.20
2019-03-18T14:48:35.645Z,10.20
2019-03-18T14:51:04.877Z,10.00
2019-03-18T14:53:58.125Z,10.10
2019-03-18T14:56:28.118Z,10.30
2019-03-18T14:58:57.432Z,10.40
2019-03-18T15:01:26.571Z,10.50
2019-03-18T15:03:58.384Z,10.50
2019-03-18T15:06:28.353Z,10.70
2019-03-18T15:08:57.657Z,10.80
2019-03-18T15:11:26.912Z,11.00
2019-03-18T15:13:56.139Z,11.00
2019-03-18T15:16:26.701Z,11.00
2019-03-18T15:18:56.319Z,11.10
2019-03-18T15:21:25.562Z,11.20
2019-03-18T15:23:55.094Z,11.20
2019-03-18T15:26:24.327Z,11.30
2019-03-18T15:28:59.421Z,11.30
2019-03-18T15:31:28.580Z,11.10
2019-03-18T15:33:57.773Z,10.80
2019-03-18T15:36:27.921Z,10.70
2019-03-18T15:38:57.148Z,10.60
2019-03-18T15:41:26.398Z,10.50
2019-03-18T15:43:55.547Z,10.20
2019-03-18T15:46:25.058Z,10.50
2019-03-18T15:48:54.391Z,11.20
2019-03-18T15:51:23.805Z,11.50
2019-03-18T15:53:54.760Z,11.80
2019-03-18T15:56:24.046Z,12.20
2019-03-18T15:58:53.352Z,12.20
2019-03-18T16:01:22.600Z,11.80
2019-03-18T16:03:51.837Z,11.40
2019-03-18T16:06:21.106Z,11.10
2019-03-18T16:08:50.321Z,10.90
2019-03-18T16:11:19.717Z,10.70
2019-03-18T16:13:48.937Z,10.50
2019-03-18T16:16:18.146Z,10.40
2019-03-18T16:18:50.629Z,10.40
2019-03-18T16:21:19.853Z,10.30
2019-03-18T16:23:49.085Z,10.20
2019-03-18T16:26:18.499Z,10.10
2019-03-18T16:28:47.822Z,9.80
2019-03-18T16:31:25.783Z,9.80
2019-03-18T16:33:56.845Z,9.70
2019-03-18T16:36:28.034Z,9.70
2019-03-18T16:38:57.313Z,9.80
2019-03-18T16:41:26.605Z,9.60
2019-03-18T16:43:58.206Z,9.60
2019-03-18T16:46:27.447Z,9.50
2019-03-18T16:49:02.058Z,9.60
2019-03-18T16:51:31.260Z,9.50
2019-03-18T16:54:02.644Z,9.40
2019-03-18T16:56:36.218Z,9.30
2019-03-18T16:59:04.180Z,9.30
2019-03-18T17:01:33.486Z,9.30
2019-03-18T17:04:03.683Z,9.30
2019-03-18T17:06:37.993Z,9.30
2019-03-18T17:09:11.055Z,9.10
2019-03-18T17:11:44.408Z,9.00
2019-03-18T17:14:13.665Z,8.90
2019-03-18T17:16:42.896Z,8.90
2019-03-18T17:19:12.844Z,9.00
2019-03-18T17:21:42.013Z,9.50
2019-03-18T17:24:11.510Z,9.40
2019-03-18T17:51:33.468Z,8.20
2019-03-18T18:01:00.162Z,8.00
2019-03-18T18:03:46.637Z,7.90
2019-03-18T18:06:20.970Z,7.80
2019-03-18T18:12:26.157Z,7.80
2019-03-18T18:15:03.317Z,7.60
2019-03-18T18:35:44.121Z,7.30
2019-03-18T18:38:35.843Z,7.30
2019-03-18T18:41:05.355Z,7.20
2019-03-18T18:43:38.265Z,7.20
2019-03-18T19:40:17.268Z,6.70
2019-03-18T20:20:58.121Z,7.10
2019-03-18T20:29:02.181Z,6.60
2019-03-18T21:14:13.432Z,6.30
2019-03-18T21:20:25.338Z,6.30
2019-03-18T21:27:22.446Z,6.20
2019-03-18T21:30:23.401Z,6.30
2019-03-18T21:33:08.979Z,6.30
2019-03-18T21:36:24.018Z,6.20
2019-03-18T21:42:06.017Z,6.20
2019-03-18T21:44:53.511Z,6.20
2019-03-18T21:48:12.931Z,6.20
2019-03-18T21:51:18.585Z,6.20
2019-03-18T21:54:06.796Z,6.20
2019-03-18T21:56:39.601Z,6.10
2019-03-18T21:59:09.164Z,6.30
2019-03-18T22:01:50.207Z,6.20
2019-03-18T22:04:19.706Z,6.30
2019-03-18T22:06:49.287Z,6.40
2019-03-18T22:09:18.601Z,6.40
2019-03-18T22:11:51.125Z,6.40
2019-03-18T22:14:23.688Z,6.40
2019-03-18T22:16:58.135Z,6.30
2019-03-18T22:19:27.484Z,6.30
2019-03-18T22:21:56.761Z,6.40
2019-03-18T22:24:25.954Z,6.40
2019-03-18T22:26:55.754Z,6.40
2019-03-18T22:29:24.942Z,6.40
2019-03-18T22:31:54.406Z,6.30
2019-03-18T22:34:25.245Z,6.30
2019-03-18T22:36:55.404Z,6.30
2019-03-18T22:39:24.566Z,6.20
2019-03-18T22:41:53.746Z,6.30
2019-03-18T22:44:22.989Z,6.30
2019-03-18T22:46:52.257Z,6.40
2019-03-18T22:49:23.801Z,6.40
2019-03-18T22:51:53.028Z,6.40
2019-03-18T22:54:22.140Z,6.30
2019-03-18T22:56:51.370Z,6.20
2019-03-18T22:59:20.597Z,6.10
2019-03-18T23:01:49.840Z,6.20
2019-03-18T23:04:19.352Z,6.20
2019-03-18T23:06:48.574Z,6.10
2019-03-18T23:09:20.950Z,6.10
2019-03-18T23:11:50.129Z,6.10
2019-03-18T23:14:19.758Z,6.00
2019-03-18T23:16:49.044Z,6.10
2019-03-18T23:19:18.312Z,6.10
2019-03-18T23:21:47.543Z,6.10
2019-03-18T23:24:16.838Z,6.00
2019-03-18T23:26:46.062Z,6.00
2019-03-18T23:29:15.347Z,6.10
2019-03-18T23:31:44.578Z,6.00
2019-03-18T23:34:13.703Z,6.00
2019-03-18T23:36:42.922Z,6.00
2019-03-18T23:39:12.183Z,6.00
2019-03-18T23:41:41.406Z,6.00
2019-03-18T23:44:10.652Z,6.00
2019-03-18T23:46:39.839Z,6.00
2019-03-18T23:49:09.109Z,6.00
2019-03-18T23:51:38.294Z,6.00
2019-03-18T23:54:07.432Z,6.00
2019-03-18T23:56:36.737Z,5.90
2019-03-18T23:59:05.951Z,5.90
